Sublette, IL (61367)

2:01 PM CST on January 27, 2015 (GMT -0600)
APRSWXNET Sublette IL US | Change Station
CLOSE
Current Station
Personal Weather Station
Location: Sublette, IL
Elevation: 926 ft
Nearby Weather Stations

Elev 926 ft 41.65 °N, 89.23 °W | Updated 29 minutes ago

Overcast
Overcast
30 °F
Feels Like 30 °F
N
3
Wind Variable Wind from NNW
Gusts 5.0 mph

Today
High -- | Low -- °F
--% Chance of Precip.
Yesterday
High -- | Low -- °F
Precip. -- in
7:13 AM 5:06 PM
First Quarter, 57% visible
Pressure 30.19 in
Visibility 7.0 miles
Clouds Overcast 1400 ft
Windchill 30 °F
Dew Point 27 °F
Humidity 89%
Rainfall 0.02 in
Snow Depth Not available.
UV 1 out of 12
Pollen .10 out of 12
Air Quality Not available.
Flu Activity Not available.
METAR KVYS 271930Z AUTO 36003KT 7SM OVC014 00/M03 A3019 RMK AO2 T10051028

More Conditions Fewer Conditions

Pressure 30.19 in
Visibility 7.0 miles
Clouds Overcast 1400 ft
Windchill 30 °F
Dew Point 27 °F
Humidity 89%
Rainfall 0.02 in
Snow Depth Not available.
UV 1 out of 12
Pollen .10 out of 12
Air Quality Not available.
Flu Activity Not available.
METAR KVYS 271930Z AUTO 36003KT 7SM OVC014 00/M03 A3019 RMK AO2 T10051028

More Conditions Fewer Conditions

10-Day Weather Forecast

Almanac

Astronomy

Jan. 27, 2015 Rise Set
Actual Time
Civil Twilight
Nautical Twilight
Astronomical Twilight
Moon
Length of Visible Light
Length of Day
Tomorrow will be .
, % of the Moon is Illuminated

Today's Extremes

State Highs State Lows

Community

WunderPhotos

Upload Photos

1,790,874 photos uploaded!

WunderBlogs® & News

Nearby

Air Quality

  Air Quality AQ Index Pollutant
Not available.

Snow Depth

Station Depth Elevation

Earthquake Activity

City Distance Mag. Time & Date
Minimum magnitude displayed is 2.5.

Coastal Water Temperatures

Place Temperature

Nearby Weather Stations